createdAt,value
2022-10-21T00:04:13.014Z,100.00
2022-10-21T00:06:41.932Z,100.00
2022-10-21T00:09:10.982Z,100.00
2022-10-21T00:11:41.542Z,100.00
2022-10-21T00:14:10.642Z,100.00
2022-10-21T00:16:39.666Z,100.00
2022-10-21T00:19:08.829Z,100.00
2022-10-21T00:21:38.229Z,100.00
2022-10-21T00:24:07.726Z,100.00
2022-10-21T00:26:38.484Z,100.00
2022-10-21T00:29:09.155Z,100.00
2022-10-21T00:31:38.126Z,100.00
2022-10-21T00:34:07.087Z,100.00
2022-10-21T00:36:36.106Z,100.00
2022-10-21T00:39:05.619Z,100.00
2022-10-21T00:41:34.840Z,100.00
2022-10-21T00:44:09.201Z,100.00
2022-10-21T00:46:45.862Z,100.00
2022-10-21T00:49:27.076Z,100.00
2022-10-21T00:52:03.038Z,100.00
2022-10-21T00:54:33.272Z,100.00
2022-10-21T00:57:02.263Z,100.00
2022-10-21T00:59:39.831Z,100.00
2022-10-21T01:02:09.451Z,100.00
2022-10-21T01:04:38.522Z,100.00
2022-10-21T01:07:07.772Z,100.00
2022-10-21T01:09:36.839Z,100.00
2022-10-21T01:12:16.585Z,100.00
2022-10-21T01:14:58.987Z,100.00
2022-10-21T01:17:48.230Z,100.00
2022-10-21T01:20:59.387Z,100.00
2022-10-21T01:24:07.096Z,100.00
2022-10-21T01:27:12.629Z,100.00
2022-10-21T01:30:25.591Z,100.00
2022-10-21T01:33:42.388Z,100.00
2022-10-21T01:36:30.407Z,100.00
2022-10-21T01:39:15.042Z,100.00
2022-10-21T01:41:54.072Z,100.00
2022-10-21T01:44:31.231Z,100.00
2022-10-21T01:47:08.051Z,100.00
2022-10-21T01:49:44.047Z,100.00
2022-10-21T01:52:15.578Z,100.00
2022-10-21T01:54:54.283Z,100.00
2022-10-21T01:57:31.150Z,100.00
2022-10-21T02:00:02.081Z,100.00
2022-10-21T02:02:38.918Z,100.00
2022-10-21T02:05:17.476Z,100.00
2022-10-21T02:07:46.554Z,100.00
2022-10-21T02:10:16.080Z,100.00
2022-10-21T02:12:50.551Z,100.00
2022-10-21T02:15:23.176Z,100.00
2022-10-21T02:17:59.224Z,100.00
2022-10-21T02:20:33.416Z,100.00
2022-10-21T02:23:03.988Z,100.00
2022-10-21T02:25:40.181Z,100.00
2022-10-21T02:28:10.020Z,100.00
2022-10-21T02:30:57.002Z,100.00
2022-10-21T02:33:42.507Z,100.00
2022-10-21T02:36:24.201Z,100.00
2022-10-21T02:39:03.329Z,100.00
2022-10-21T02:41:35.650Z,100.00
2022-10-21T02:44:06.636Z,100.00
2022-10-21T02:46:39.560Z,100.00
2022-10-21T02:49:10.912Z,100.00
2022-10-21T02:51:40.810Z,100.00
2022-10-21T02:54:09.925Z,100.00
2022-10-21T02:56:39.119Z,100.00
2022-10-21T02:59:07.992Z,100.00
2022-10-21T03:01:36.949Z,100.00
2022-10-21T03:04:06.172Z,100.00
2022-10-21T03:06:36.778Z,100.00
2022-10-21T03:09:06.517Z,100.00
2022-10-21T03:11:35.483Z,100.00
2022-10-21T03:14:04.470Z,100.00
2022-10-21T03:16:33.693Z,100.00
2022-10-21T03:19:02.481Z,100.00
2022-10-21T03:21:31.555Z,100.00
2022-10-21T03:24:02.589Z,100.00
2022-10-21T03:26:32.848Z,100.00
2022-10-21T03:29:01.816Z,100.00
2022-10-21T03:31:30.735Z,100.00
2022-10-21T03:33:59.680Z,100.00
2022-10-21T03:36:28.573Z,100.00
2022-10-21T03:38:57.677Z,100.00
2022-10-21T03:41:28.056Z,100.00
2022-10-21T03:43:57.135Z,100.00
2022-10-21T03:46:26.278Z,100.00
2022-10-21T03:48:57.300Z,100.00
2022-10-21T03:51:30.019Z,100.00
2022-10-21T03:53:59.014Z,100.00
2022-10-21T03:56:29.620Z,100.00
2022-10-21T03:58:58.947Z,100.00
2022-10-21T04:01:28.311Z,100.00
2022-10-21T04:03:57.338Z,100.00
2022-10-21T04:06:26.351Z,100.00
2022-10-21T04:08:55.508Z,100.00
2022-10-21T04:11:25.085Z,100.00
2022-10-21T04:13:55.438Z,100.00
2022-10-21T04:16:25.100Z,100.00
2022-10-21T04:18:54.118Z,100.00
2022-10-21T04:23:57.170Z,100.00
2022-10-21T04:26:26.113Z,100.00
2022-10-21T04:28:56.512Z,100.00
2022-10-21T04:31:29.799Z,100.00
2022-10-21T04:34:01.105Z,100.00
2022-10-21T04:36:30.177Z,100.00
2022-10-21T04:38:59.017Z,100.00
2022-10-21T04:41:28.476Z,100.00
2022-10-21T04:43:58.871Z,100.00
2022-10-21T04:46:28.308Z,100.00
2022-10-21T04:48:57.497Z,100.00
2022-10-21T04:51:26.550Z,100.00
2022-10-21T04:53:55.633Z,100.00
2022-10-21T04:56:24.611Z,100.00
2022-10-21T04:58:53.649Z,100.00
2022-10-21T05:01:24.071Z,100.00
2022-10-21T05:03:53.146Z,100.00
2022-10-21T05:06:22.128Z,100.00
2022-10-21T05:08:51.259Z,100.00
2022-10-21T05:11:20.275Z,100.00
2022-10-21T05:13:49.302Z,100.00
2022-10-21T05:16:18.463Z,100.00
2022-10-21T05:18:49.103Z,100.00
2022-10-21T05:21:20.415Z,100.00
2022-10-21T05:23:52.834Z,100.00
2022-10-21T05:26:24.888Z,100.00
2022-10-21T05:28:53.840Z,100.00
2022-10-21T05:31:22.785Z,100.00
2022-10-21T05:33:53.247Z,100.00
2022-10-21T05:36:24.049Z,100.00
2022-10-21T05:38:53.378Z,100.00
2022-10-21T05:41:22.408Z,100.00
2022-10-21T05:43:51.715Z,100.00
2022-10-21T05:46:20.632Z,100.00
2022-10-21T05:48:49.572Z,100.00
2022-10-21T05:51:25.609Z,100.00
2022-10-21T05:53:55.043Z,100.00
2022-10-21T05:56:24.121Z,100.00
2022-10-21T05:58:53.223Z,100.00
2022-10-21T06:01:25.331Z,100.00
2022-10-21T06:03:54.772Z,100.00
2022-10-21T06:06:26.265Z,100.00
2022-10-21T06:08:57.031Z,100.00
2022-10-21T06:11:28.215Z,100.00
2022-10-21T06:13:58.095Z,100.00
2022-10-21T06:16:27.660Z,100.00
2022-10-21T06:18:59.563Z,100.00
2022-10-21T06:21:32.562Z,100.00
2022-10-21T06:24:02.540Z,100.00
2022-10-21T06:26:34.693Z,100.00
2022-10-21T06:29:06.465Z,100.00
2022-10-21T06:31:36.039Z,100.00
2022-10-21T06:34:05.455Z,100.00
2022-10-21T06:36:38.572Z,100.00
2022-10-21T06:39:10.179Z,100.00
2022-10-21T06:41:41.434Z,100.00
2022-10-21T06:44:10.617Z,100.00
2022-10-21T06:46:39.934Z,100.00
2022-10-21T06:49:09.158Z,100.00
2022-10-21T06:51:40.739Z,100.00
2022-10-21T06:54:10.368Z,100.00
2022-10-21T06:56:41.852Z,100.00
2022-10-21T06:59:13.474Z,100.00
2022-10-21T07:01:59.123Z,100.00
2022-10-21T07:04:29.998Z,100.00
2022-10-21T07:07:00.624Z,100.00
2022-10-21T07:09:30.894Z,100.00
2022-10-21T07:12:02.348Z,100.00
2022-10-21T07:14:31.661Z,100.00
2022-10-21T07:17:00.759Z,100.00
2022-10-21T07:19:29.686Z,100.00
2022-10-21T07:22:01.649Z,100.00
2022-10-21T07:24:30.905Z,100.00
2022-10-21T07:27:00.110Z,100.00
2022-10-21T07:29:29.306Z,100.00
2022-10-21T07:31:59.594Z,100.00
2022-10-21T07:34:28.723Z,100.00
2022-10-21T07:36:58.024Z,100.00
2022-10-21T07:39:29.056Z,100.00
2022-10-21T07:41:59.769Z,100.00
2022-10-21T07:44:29.170Z,100.00
2022-10-21T07:46:58.451Z,100.00
2022-10-21T07:49:27.501Z,100.00
2022-10-21T07:51:57.057Z,100.00
2022-10-21T07:54:27.543Z,100.00
2022-10-21T07:56:56.620Z,100.00
2022-10-21T07:59:25.872Z,100.00
2022-10-21T08:01:54.849Z,100.00
2022-10-21T08:04:30.015Z,100.00
2022-10-21T08:07:00.088Z,100.00
2022-10-21T08:09:30.700Z,100.00
2022-10-21T08:11:59.686Z,100.00
2022-10-21T08:14:28.742Z,100.00
2022-10-21T08:16:57.796Z,100.00
2022-10-21T08:19:29.969Z,100.00
2022-10-21T08:21:59.231Z,100.00
2022-10-21T08:24:30.311Z,100.00
2022-10-21T08:26:59.238Z,100.00
2022-10-21T08:29:28.383Z,100.00
2022-10-21T08:31:57.778Z,100.00
2022-10-21T08:34:26.890Z,100.00
2022-10-21T08:36:55.874Z,100.00
2022-10-21T08:39:25.678Z,100.00
2022-10-21T08:42:13.191Z,100.00
2022-10-21T08:44:54.644Z,100.00
2022-10-21T08:47:35.698Z,100.00
2022-10-21T08:50:13.487Z,100.00
2022-10-21T08:52:48.792Z,100.00
2022-10-21T08:55:24.429Z,100.00
2022-10-21T08:57:56.179Z,100.00
2022-10-21T09:00:37.335Z,100.00
2022-10-21T09:03:41.957Z,100.00
2022-10-21T09:06:28.659Z,100.00
2022-10-21T09:09:10.257Z,100.00
2022-10-21T09:12:00.992Z,100.00
2022-10-21T09:15:19.252Z,100.00
2022-10-21T09:18:18.059Z,100.00
2022-10-21T09:21:01.657Z,100.00
2022-10-21T09:23:58.788Z,100.00
2022-10-21T09:26:39.022Z,100.00
2022-10-21T09:29:29.862Z,100.00
2022-10-21T09:32:15.375Z,100.00
2022-10-21T09:34:56.515Z,100.00
2022-10-21T09:37:35.671Z,100.00
2022-10-21T09:40:17.140Z,100.00
2022-10-21T09:42:48.123Z,100.00
2022-10-21T09:45:29.913Z,100.00
2022-10-21T09:48:04.951Z,100.00
2022-10-21T09:50:36.217Z,100.00
2022-10-21T09:53:14.723Z,100.00
2022-10-21T09:55:47.923Z,100.00
2022-10-21T09:58:28.426Z,100.00
2022-10-21T10:00:58.892Z,100.00
2022-10-21T10:03:39.663Z,100.00
2022-10-21T10:06:09.396Z,100.00
2022-10-21T10:08:42.561Z,100.00
2022-10-21T10:11:22.873Z,100.00
2022-10-21T10:13:54.618Z,100.00
2022-10-21T10:16:29.592Z,100.00
2022-10-21T10:19:23.119Z,100.00
2022-10-21T10:22:15.051Z,100.00
2022-10-21T10:24:45.893Z,100.00
2022-10-21T10:27:20.839Z,100.00
2022-10-21T10:29:57.617Z,100.00
2022-10-21T10:32:33.791Z,98.17
2022-10-21T10:35:09.042Z,95.61
2022-10-21T10:37:40.316Z,96.71
2022-10-21T10:40:19.305Z,96.93
2022-10-21T10:42:48.523Z,98.23
2022-10-21T10:45:22.997Z,99.97
2022-10-21T10:47:57.955Z,100.00
2022-10-21T10:50:49.784Z,100.00
2022-10-21T10:53:35.063Z,100.00
2022-10-21T10:56:23.615Z,100.00
2022-10-21T10:59:07.351Z,100.00
2022-10-21T11:01:46.290Z,100.00
2022-10-21T11:04:25.049Z,100.00
2022-10-21T11:07:07.499Z,100.00
2022-10-21T11:09:37.185Z,100.00
2022-10-21T11:12:20.538Z,100.00
2022-10-21T11:14:55.854Z,100.00
2022-10-21T11:17:32.078Z,100.00
2022-10-21T11:20:15.349Z,100.00
2022-10-21T11:23:00.718Z,100.00
2022-10-21T11:25:41.156Z,100.00
2022-10-21T11:28:27.928Z,100.00
2022-10-21T11:31:15.096Z,100.00
2022-10-21T11:33:56.049Z,100.00
2022-10-21T11:36:37.509Z,100.00
2022-10-21T11:39:53.632Z,100.00
2022-10-21T11:42:33.616Z,100.00
2022-10-21T11:45:26.675Z,100.00
2022-10-21T11:48:08.863Z,100.00
2022-10-21T11:50:47.486Z,100.00
2022-10-21T11:53:43.407Z,100.00
2022-10-21T11:56:29.145Z,100.00
2022-10-21T11:59:20.072Z,99.35
2022-10-21T12:02:02.183Z,99.04
2022-10-21T12:04:44.611Z,100.00
2022-10-21T12:07:33.199Z,100.00
2022-10-21T12:10:11.575Z,100.00
2022-10-21T12:12:47.761Z,100.00
2022-10-21T12:15:22.047Z,100.00
2022-10-21T12:17:53.301Z,100.00
2022-10-21T12:20:27.197Z,100.00
2022-10-21T12:23:04.178Z,98.88
2022-10-21T12:25:48.034Z,99.10
2022-10-21T12:28:31.841Z,100.00
2022-10-21T12:31:17.189Z,100.00
2022-10-21T12:33:52.417Z,100.00
2022-10-21T12:36:44.831Z,100.00
2022-10-21T12:39:40.902Z,100.00
2022-10-21T12:42:21.405Z,100.00
2022-10-21T12:44:54.778Z,100.00
2022-10-21T12:47:31.075Z,100.00
2022-10-21T12:50:29.221Z,100.00
2022-10-21T12:53:33.682Z,100.00
2022-10-21T12:56:04.148Z,100.00
2022-10-21T12:58:41.670Z,100.00
2022-10-21T13:01:40.340Z,100.00
2022-10-21T13:04:48.961Z,100.00
2022-10-21T13:07:39.608Z,100.00
2022-10-21T13:10:32.824Z,100.00
2022-10-21T13:13:35.343Z,100.00
2022-10-21T13:16:39.622Z,100.00
2022-10-21T13:19:38.604Z,100.00
2022-10-21T13:22:16.036Z,100.00
2022-10-21T13:24:48.075Z,100.00
2022-10-21T13:30:03.514Z,100.00
2022-10-21T13:32:38.821Z,100.00
2022-10-21T13:35:37.188Z,100.00
2022-10-21T13:38:21.500Z,100.00
2022-10-21T13:40:54.897Z,100.00
2022-10-21T13:43:30.931Z,100.00
2022-10-21T13:46:09.923Z,100.00
2022-10-21T13:48:47.446Z,100.00
2022-10-21T13:51:23.816Z,100.00
2022-10-21T13:53:59.871Z,100.00
2022-10-21T13:56:35.286Z,100.00
2022-10-21T13:59:09.887Z,100.00
2022-10-21T14:01:50.280Z,100.00
2022-10-21T14:04:24.587Z,100.00
2022-10-21T14:06:58.291Z,100.00
2022-10-21T14:09:32.284Z,100.00
2022-10-21T14:12:06.154Z,100.00
2022-10-21T14:14:39.974Z,100.00
2022-10-21T14:17:18.220Z,100.00
2022-10-21T14:19:55.039Z,100.00
2022-10-21T14:22:29.347Z,100.00
2022-10-21T14:25:02.121Z,100.00
2022-10-21T14:27:34.352Z,100.00
2022-10-21T14:30:10.322Z,100.00
2022-10-21T14:32:40.626Z,100.00
2022-10-21T14:35:33.427Z,100.00
2022-10-21T14:38:05.474Z,100.00
2022-10-21T14:40:38.539Z,100.00
2022-10-21T14:43:20.981Z,100.00
2022-10-21T14:45:53.226Z,100.00
2022-10-21T14:48:30.161Z,100.00
2022-10-21T14:51:04.712Z,100.00
2022-10-21T14:53:39.788Z,100.00
2022-10-21T14:56:18.015Z,100.00
2022-10-21T14:58:51.789Z,100.00
2022-10-21T15:01:23.363Z,100.00
2022-10-21T15:03:55.373Z,100.00
2022-10-21T15:06:29.205Z,100.00
2022-10-21T15:09:19.949Z,100.00
2022-10-21T15:11:49.504Z,100.00
2022-10-21T15:14:31.969Z,100.00
2022-10-21T15:17:05.300Z,100.00
2022-10-21T15:19:49.996Z,100.00
2022-10-21T15:22:31.356Z,100.00
2022-10-21T15:25:08.702Z,100.00
2022-10-21T15:27:45.136Z,100.00
2022-10-21T15:30:22.666Z,100.00
2022-10-21T15:32:53.154Z,100.00
2022-10-21T15:35:26.906Z,100.00
2022-10-21T15:37:57.381Z,100.00
2022-10-21T15:40:26.622Z,100.00
2022-10-21T15:42:56.846Z,100.00
2022-10-21T15:45:26.885Z,100.00
2022-10-21T15:47:57.440Z,100.00
2022-10-21T15:50:28.555Z,100.00
2022-10-21T15:52:59.008Z,100.00
2022-10-21T15:55:28.210Z,100.00
2022-10-21T15:57:57.218Z,100.00
2022-10-21T16:00:26.132Z,100.00
2022-10-21T16:02:55.169Z,100.00
2022-10-21T16:05:24.870Z,100.00
2022-10-21T16:07:54.689Z,100.00
2022-10-21T16:10:43.386Z,100.00
2022-10-21T16:13:14.828Z,100.00
2022-10-21T16:16:09.091Z,100.00
2022-10-21T16:18:44.056Z,100.00
2022-10-21T16:21:19.588Z,100.00
2022-10-21T16:23:57.078Z,100.00
2022-10-21T16:26:35.596Z,100.00
2022-10-21T16:29:09.299Z,100.00
2022-10-21T16:31:38.619Z,100.00
2022-10-21T16:34:07.695Z,100.00
2022-10-21T16:36:38.212Z,100.00
2022-10-21T16:39:14.781Z,100.00
2022-10-21T16:41:45.828Z,100.00
2022-10-21T16:44:14.851Z,100.00
2022-10-21T16:46:51.510Z,100.00
2022-10-21T16:49:26.119Z,100.00
2022-10-21T16:51:57.768Z,100.00
2022-10-21T16:54:26.751Z,100.00
2022-10-21T16:56:57.665Z,100.00
2022-10-21T16:59:26.723Z,100.00
2022-10-21T17:01:55.664Z,100.00
2022-10-21T17:04:24.768Z,100.00
2022-10-21T17:06:55.208Z,100.00
2022-10-21T17:09:26.448Z,100.00
2022-10-21T17:11:56.938Z,100.00
2022-10-21T17:14:25.985Z,100.00
2022-10-21T17:16:55.197Z,100.00
2022-10-21T17:19:24.368Z,100.00
2022-10-21T17:21:53.542Z,100.00
2022-10-21T17:24:22.499Z,100.00
2022-10-21T17:26:51.603Z,100.00
2022-10-21T17:29:22.218Z,100.00
2022-10-21T17:31:51.932Z,100.00
2022-10-21T17:34:31.924Z,100.00
2022-10-21T17:37:02.176Z,100.00
2022-10-21T17:39:31.271Z,100.00
2022-10-21T17:42:01.042Z,100.00
2022-10-21T17:44:31.829Z,100.00
2022-10-21T17:47:00.971Z,100.00
2022-10-21T17:49:29.838Z,100.00
2022-10-21T17:51:58.819Z,100.00
2022-10-21T17:54:29.930Z,100.00
2022-10-21T17:57:01.109Z,100.00
2022-10-21T17:59:32.933Z,100.00
2022-10-21T18:02:02.110Z,100.00
2022-10-21T18:04:31.896Z,100.00
2022-10-21T18:07:09.865Z,100.00
2022-10-21T18:09:40.162Z,100.00
2022-10-21T18:12:11.367Z,100.00
2022-10-21T18:14:42.126Z,100.00
2022-10-21T18:17:11.961Z,100.00
2022-10-21T18:19:41.041Z,100.00
2022-10-21T18:22:10.234Z,100.00
2022-10-21T18:24:39.633Z,100.00
2022-10-21T18:27:10.110Z,100.00
2022-10-21T18:29:40.522Z,100.00
2022-10-21T18:32:13.753Z,100.00
2022-10-21T18:34:44.028Z,100.00
2022-10-21T18:37:13.139Z,100.00
2022-10-21T18:39:42.400Z,100.00
2022-10-21T18:42:11.486Z,100.00
2022-10-21T18:44:42.091Z,100.00
2022-10-21T18:47:11.356Z,100.00
2022-10-21T18:49:40.384Z,100.00
2022-10-21T18:52:11.592Z,100.00
2022-10-21T18:54:40.585Z,100.00
2022-10-21T18:57:13.150Z,100.00
2022-10-21T18:59:46.201Z,100.00
2022-10-21T19:02:26.332Z,100.00
2022-10-21T19:05:01.269Z,100.00
2022-10-21T19:07:38.011Z,100.00
2022-10-21T19:10:09.075Z,100.00
2022-10-21T19:12:38.471Z,100.00
2022-10-21T19:15:10.948Z,100.00
2022-10-21T19:17:42.066Z,100.00
2022-10-21T19:20:11.884Z,100.00
2022-10-21T19:22:40.882Z,100.00
2022-10-21T19:25:10.823Z,100.00
2022-10-21T19:27:40.012Z,100.00
2022-10-21T19:30:12.706Z,100.00
2022-10-21T19:32:41.992Z,100.00
2022-10-21T19:35:11.240Z,100.00
2022-10-21T19:37:40.418Z,100.00
2022-10-21T19:40:10.388Z,100.00
2022-10-21T19:42:41.378Z,100.00
2022-10-21T19:45:17.178Z,100.00
2022-10-21T19:47:46.394Z,100.00
2022-10-21T19:50:15.380Z,100.00
2022-10-21T19:52:44.679Z,100.00
2022-10-21T19:55:13.941Z,100.00
2022-10-21T19:57:42.995Z,100.00
2022-10-21T20:00:15.245Z,100.00
2022-10-21T20:02:44.170Z,100.00
2022-10-21T20:05:13.181Z,100.00
2022-10-21T20:07:42.620Z,100.00
2022-10-21T20:10:11.970Z,100.00
2022-10-21T20:12:41.378Z,100.00
2022-10-21T20:15:12.772Z,100.00
2022-10-21T20:17:41.677Z,100.00
2022-10-21T20:20:11.578Z,100.00
2022-10-21T20:22:41.012Z,100.00
2022-10-21T20:25:11.191Z,100.00
2022-10-21T20:27:40.264Z,100.00
2022-10-21T20:30:10.833Z,100.00
2022-10-21T20:32:41.432Z,100.00
2022-10-21T20:35:10.806Z,100.00
2022-10-21T20:37:40.925Z,100.00
2022-10-21T20:40:11.386Z,100.00
2022-10-21T20:42:40.388Z,100.00
2022-10-21T20:45:10.655Z,100.00
2022-10-21T20:47:41.341Z,100.00
2022-10-21T20:50:11.690Z,100.00
2022-10-21T20:52:40.639Z,100.00
2022-10-21T20:55:11.101Z,100.00
2022-10-21T20:57:40.391Z,100.00
2022-10-21T21:00:11.700Z,100.00
2022-10-21T21:02:42.120Z,100.00
2022-10-21T21:05:11.760Z,100.00
2022-10-21T21:07:58.502Z,100.00
2022-10-21T21:10:27.704Z,100.00
2022-10-21T21:12:56.999Z,100.00
2022-10-21T21:15:26.069Z,100.00
2022-10-21T21:17:56.451Z,100.00
2022-10-21T21:20:25.645Z,100.00
2022-10-21T21:22:55.964Z,100.00
2022-10-21T21:25:25.016Z,100.00
2022-10-21T21:27:54.030Z,100.00
2022-10-21T21:30:23.082Z,100.00
2022-10-21T21:32:52.008Z,100.00
2022-10-21T21:35:23.228Z,100.00
2022-10-21T21:37:52.433Z,100.00
2022-10-21T21:40:21.446Z,100.00
2022-10-21T21:42:50.562Z,100.00
2022-10-21T21:45:19.732Z,100.00
2022-10-21T21:47:48.787Z,100.00
2022-10-21T21:50:18.036Z,100.00
2022-10-21T21:52:48.640Z,100.00
2022-10-21T21:55:17.825Z,100.00
2022-10-21T21:57:46.928Z,100.00
2022-10-21T22:00:16.828Z,100.00
2022-10-21T22:02:46.247Z,100.00
2022-10-21T22:05:15.931Z,100.00
2022-10-21T22:07:44.867Z,100.00
2022-10-21T22:10:16.095Z,100.00
2022-10-21T22:12:46.070Z,100.00
2022-10-21T22:15:29.716Z,100.00
2022-10-21T22:18:05.830Z,100.00
2022-10-21T22:20:34.864Z,100.00
2022-10-21T22:23:03.911Z,100.00
2022-10-21T22:25:34.468Z,100.00
2022-10-21T22:28:03.404Z,100.00
2022-10-21T22:30:32.471Z,100.00
2022-10-21T22:33:01.432Z,100.00
2022-10-21T22:35:30.495Z,100.00
2022-10-21T22:37:59.741Z,100.00
2022-10-21T22:40:28.869Z,100.00
2022-10-21T22:42:59.340Z,100.00
2022-10-21T22:45:28.311Z,100.00
2022-10-21T22:47:57.264Z,100.00
2022-10-21T22:50:26.343Z,100.00
2022-10-21T22:52:55.428Z,100.00
2022-10-21T22:55:24.403Z,100.00
2022-10-21T22:57:53.403Z,100.00
2022-10-21T23:00:23.810Z,100.00
2022-10-21T23:02:52.872Z,100.00
2022-10-21T23:05:22.049Z,100.00
2022-10-21T23:07:51.136Z,100.00
2022-10-21T23:10:22.536Z,100.00
2022-10-21T23:12:51.496Z,100.00
2022-10-21T23:15:20.929Z,100.00
2022-10-21T23:17:51.337Z,100.00
2022-10-21T23:20:20.562Z,100.00
2022-10-21T23:22:49.697Z,100.00
2022-10-21T23:25:19.607Z,100.00
2022-10-21T23:27:52.154Z,100.00
2022-10-21T23:30:21.897Z,100.00
2022-10-21T23:32:52.492Z,100.00
2022-10-21T23:35:23.955Z,100.00
2022-10-21T23:37:52.908Z,100.00
2022-10-21T23:40:22.528Z,100.00
2022-10-21T23:42:51.444Z,100.00
2022-10-21T23:45:20.702Z,100.00
2022-10-21T23:47:49.824Z,100.00
2022-10-21T23:50:20.507Z,100.00
2022-10-21T23:52:50.493Z,100.00
2022-10-21T23:55:20.205Z,100.00
2022-10-21T23:57:49.248Z,100.00
